createdAt,value
2018-06-23T00:00:18.991Z,8.10
2018-06-23T00:02:46.196Z,8.10
2018-06-23T00:05:13.594Z,8.10
2018-06-23T00:07:40.799Z,8.10
2018-06-23T00:10:08.005Z,8.00
2018-06-23T00:12:35.217Z,8.00
2018-06-23T00:15:02.452Z,8.00
2018-06-23T00:17:29.654Z,7.90
2018-06-23T00:19:56.861Z,7.90
2018-06-23T00:22:24.078Z,7.90
2018-06-23T00:24:51.261Z,8.00
2018-06-23T00:27:18.443Z,7.90
2018-06-23T00:29:45.638Z,7.90
2018-06-23T00:32:12.848Z,7.90
2018-06-23T00:34:40.031Z,7.90
2018-06-23T00:37:07.235Z,7.80
2018-06-23T00:39:34.418Z,7.80
2018-06-23T00:42:01.609Z,7.70
2018-06-23T00:44:28.792Z,7.70
2018-06-23T00:46:56.006Z,7.70
2018-06-23T00:49:23.185Z,7.60
2018-06-23T00:51:50.398Z,7.60
2018-06-23T00:54:17.598Z,7.60
2018-06-23T00:56:44.814Z,7.60
2018-06-23T00:59:23.621Z,7.60
2018-06-23T01:01:50.840Z,7.70
2018-06-23T01:04:18.046Z,7.80
2018-06-23T01:06:45.257Z,7.80
2018-06-23T01:09:12.445Z,7.70
2018-06-23T01:11:39.642Z,7.70
2018-06-23T01:14:06.822Z,7.70
2018-06-23T01:16:34.045Z,7.70
2018-06-23T01:19:01.218Z,7.80
2018-06-23T01:21:28.410Z,7.80
2018-06-23T01:23:55.652Z,7.80
2018-06-23T01:26:22.837Z,7.80
2018-06-23T01:28:50.029Z,7.70
2018-06-23T01:31:17.225Z,7.70
2018-06-23T01:33:44.583Z,7.70
2018-06-23T01:36:11.773Z,7.60
2018-06-23T01:38:38.977Z,7.60
2018-06-23T01:41:06.177Z,7.60
2018-06-23T01:43:33.392Z,7.50
2018-06-23T01:46:00.593Z,7.50
2018-06-23T01:48:27.799Z,7.50
2018-06-23T01:50:54.980Z,7.40
2018-06-23T01:53:22.194Z,7.40
2018-06-23T01:55:49.431Z,7.50
2018-06-23T01:58:16.629Z,7.50
2018-06-23T02:00:43.824Z,7.50
2018-06-23T02:03:11.012Z,7.50
2018-06-23T02:05:38.202Z,7.50
2018-06-23T02:08:05.778Z,7.50
2018-06-23T02:10:32.972Z,7.40
2018-06-23T02:13:00.170Z,7.40
2018-06-23T02:16:37.160Z,7.40
2018-06-23T02:19:10.090Z,7.40
2018-06-23T02:22:46.879Z,7.40
2018-06-23T02:25:19.736Z,7.40
2018-06-23T02:27:52.658Z,7.40
2018-06-23T02:30:25.699Z,7.30
2018-06-23T02:32:53.430Z,7.30
2018-06-23T02:35:20.893Z,7.30
2018-06-23T02:37:48.099Z,7.30
2018-06-23T02:40:15.317Z,7.30
2018-06-23T02:42:42.525Z,7.30
2018-06-23T02:45:09.736Z,7.30
2018-06-23T02:47:36.937Z,7.20
2018-06-23T02:50:04.282Z,7.20
2018-06-23T02:52:31.734Z,7.10
2018-06-23T02:54:59.110Z,7.10
2018-06-23T02:57:26.333Z,7.00
2018-06-23T02:59:53.549Z,7.00
2018-06-23T03:02:20.765Z,7.00
2018-06-23T03:04:47.972Z,7.00
2018-06-23T03:07:15.529Z,7.00
2018-06-23T03:09:42.762Z,6.90
2018-06-23T03:12:10.017Z,6.90
2018-06-23T03:14:37.217Z,6.90
2018-06-23T03:17:09.282Z,6.90
2018-06-23T03:19:36.642Z,7.00
2018-06-23T03:22:03.867Z,7.00
2018-06-23T03:24:31.070Z,6.90
2018-06-23T03:26:58.296Z,7.00
2018-06-23T03:29:25.476Z,7.00
2018-06-23T03:31:52.709Z,7.00
2018-06-23T03:34:19.894Z,7.00
2018-06-23T03:36:47.075Z,7.00
2018-06-23T03:39:14.269Z,7.10
2018-06-23T03:41:41.465Z,7.10
2018-06-23T03:46:35.877Z,7.10
2018-06-23T03:49:03.061Z,7.20
2018-06-23T03:53:57.486Z,7.20
2018-06-23T03:56:25.023Z,7.20
2018-06-23T03:58:52.380Z,7.20
2018-06-23T04:01:19.582Z,7.20
2018-06-23T04:06:13.980Z,7.40
2018-06-23T04:08:41.165Z,7.40
2018-06-23T04:11:08.384Z,7.40
2018-06-23T04:13:35.576Z,7.40
2018-06-23T04:16:02.809Z,7.40
2018-06-23T04:18:30.002Z,7.50
2018-06-23T04:20:57.193Z,7.60
2018-06-23T04:23:24.365Z,7.60
2018-06-23T04:28:18.748Z,7.80
2018-06-23T04:30:45.947Z,7.80
2018-06-23T04:33:13.184Z,7.90
2018-06-23T04:35:40.385Z,8.00
2018-06-23T04:38:07.589Z,8.00
2018-06-23T04:40:34.793Z,8.10
2018-06-23T04:43:01.969Z,8.20
2018-06-23T04:45:29.157Z,8.30
2018-06-23T04:47:56.349Z,8.40
2018-06-23T04:50:23.532Z,8.50
2018-06-23T04:52:50.731Z,8.50
2018-06-23T04:55:17.908Z,8.60
2018-06-23T04:57:45.117Z,8.70
2018-06-23T05:00:12.334Z,8.80
2018-06-23T05:02:39.521Z,8.90
2018-06-23T05:05:06.737Z,9.00
2018-06-23T05:07:33.957Z,9.20
2018-06-23T05:10:01.145Z,9.30
2018-06-23T05:12:28.380Z,9.40
2018-06-23T05:14:55.554Z,9.60
2018-06-23T05:17:22.754Z,9.70
2018-06-23T05:19:50.010Z,9.90
2018-06-23T05:22:17.217Z,10.00
2018-06-23T05:24:44.414Z,10.10
2018-06-23T05:27:11.626Z,10.30
2018-06-23T05:29:38.817Z,10.50
2018-06-23T05:32:06.025Z,10.60
2018-06-23T05:34:33.265Z,10.80
2018-06-23T05:37:00.477Z,11.00
2018-06-23T05:39:27.655Z,11.00
2018-06-23T05:41:54.860Z,11.10
2018-06-23T05:44:22.060Z,11.10
2018-06-23T05:46:49.257Z,11.10
2018-06-23T05:49:16.433Z,11.10
2018-06-23T05:51:43.666Z,11.00
2018-06-23T05:54:10.888Z,10.80
2018-06-23T05:56:38.090Z,10.80
2018-06-23T05:59:05.353Z,10.60
2018-06-23T06:01:32.590Z,10.60
2018-06-23T06:03:59.796Z,10.60
2018-06-23T06:06:27.011Z,10.60
2018-06-23T06:08:54.209Z,10.70
2018-06-23T06:11:21.584Z,10.70
2018-06-23T06:13:48.775Z,10.70
2018-06-23T06:16:15.968Z,10.80
2018-06-23T06:18:43.178Z,10.80
2018-06-23T06:21:10.381Z,10.90
2018-06-23T06:23:37.585Z,11.00
2018-06-23T06:26:04.826Z,11.00
2018-06-23T06:28:32.058Z,11.10
2018-06-23T06:30:59.312Z,11.20
2018-06-23T06:33:26.489Z,11.30
2018-06-23T06:35:53.691Z,11.40
2018-06-23T06:38:20.892Z,11.40
2018-06-23T06:40:48.090Z,11.50
2018-06-23T06:43:15.303Z,11.60
2018-06-23T06:45:42.566Z,11.70
2018-06-23T06:48:09.790Z,11.90
2018-06-23T06:50:36.997Z,12.10
2018-06-23T06:53:04.229Z,12.30
2018-06-23T06:55:31.450Z,12.90
2018-06-23T06:57:58.642Z,14.30
2018-06-23T07:00:25.829Z,15.70
2018-06-23T07:02:53.088Z,17.10
2018-06-23T07:05:20.277Z,17.90
2018-06-23T07:07:47.477Z,18.70
2018-06-23T07:10:14.738Z,19.90
2018-06-23T07:12:41.929Z,20.80
2018-06-23T07:15:12.051Z,21.70
2018-06-23T07:17:39.329Z,22.80
2018-06-23T07:20:06.511Z,23.30
2018-06-23T07:22:33.694Z,23.60
2018-06-23T07:25:00.902Z,22.30
2018-06-23T07:27:28.110Z,21.30
2018-06-23T07:29:55.326Z,20.50
2018-06-23T07:32:22.524Z,19.40
2018-06-23T07:34:49.857Z,18.60
2018-06-23T07:37:16.961Z,17.30
2018-06-23T07:39:44.186Z,16.90
2018-06-23T07:42:11.372Z,16.70
2018-06-23T07:44:38.560Z,16.40
2018-06-23T07:47:05.756Z,16.30
2018-06-23T07:49:32.957Z,16.30
2018-06-23T07:52:00.149Z,16.70
2018-06-23T07:54:27.354Z,17.90
2018-06-23T07:56:54.552Z,18.60
2018-06-23T07:59:21.737Z,18.30
2018-06-23T08:01:48.931Z,18.40
2018-06-23T08:04:16.117Z,19.60
2018-06-23T08:06:43.307Z,20.40
2018-06-23T08:09:10.493Z,21.10
2018-06-23T08:11:37.818Z,22.40
2018-06-23T08:14:05.042Z,23.20
2018-06-23T08:16:32.253Z,22.10
2018-06-23T08:18:59.556Z,21.20
2018-06-23T08:21:26.753Z,20.00
2018-06-23T08:23:53.940Z,19.20
2018-06-23T08:26:21.729Z,18.70
2018-06-23T08:28:48.865Z,18.30
2018-06-23T08:31:16.115Z,17.70
2018-06-23T08:33:43.478Z,17.90
2018-06-23T08:36:10.669Z,19.40
2018-06-23T08:38:37.852Z,20.60
2018-06-23T08:41:05.066Z,20.70
2018-06-23T08:43:32.291Z,19.80
2018-06-23T08:45:59.489Z,18.10
2018-06-23T08:48:26.682Z,18.30
2018-06-23T08:53:21.077Z,18.70
2018-06-23T08:55:48.290Z,18.30
2018-06-23T08:58:15.497Z,17.60
2018-06-23T09:00:42.680Z,17.40
2018-06-23T09:03:09.873Z,19.10
2018-06-23T09:05:37.061Z,21.50
2018-06-23T09:08:04.305Z,21.90
2018-06-23T09:10:31.505Z,20.30
2018-06-23T09:12:58.737Z,18.70
2018-06-23T09:15:25.940Z,17.90
2018-06-23T09:17:53.153Z,18.70
2018-06-23T09:20:20.336Z,20.10
2018-06-23T09:22:47.541Z,20.40
2018-06-23T09:25:14.791Z,20.40
2018-06-23T09:27:41.950Z,19.70
2018-06-23T09:30:09.160Z,20.00
2018-06-23T09:32:36.350Z,20.60
2018-06-23T09:35:03.580Z,19.90
2018-06-23T09:37:30.794Z,19.00
2018-06-23T09:39:57.988Z,18.20
2018-06-23T09:42:25.181Z,17.40
2018-06-23T09:44:52.361Z,17.20
2018-06-23T09:47:19.896Z,18.00
2018-06-23T09:49:47.091Z,18.40
2018-06-23T09:52:14.349Z,18.50
2018-06-23T09:54:41.539Z,17.70
2018-06-23T09:57:08.741Z,17.00
2018-06-23T09:59:36.529Z,16.30
2018-06-23T10:02:03.763Z,15.70
2018-06-23T10:04:30.985Z,15.60
2018-06-23T10:06:58.184Z,15.60
2018-06-23T10:09:25.365Z,15.80
2018-06-23T10:11:52.573Z,16.10
2018-06-23T10:14:19.782Z,17.20
2018-06-23T10:16:46.977Z,18.70
2018-06-23T10:19:14.167Z,19.60
2018-06-23T10:21:41.385Z,19.50
2018-06-23T10:24:08.576Z,19.10
2018-06-23T10:26:35.769Z,18.60
2018-06-23T10:29:02.972Z,17.90
2018-06-23T10:31:30.156Z,17.60
2018-06-23T10:33:57.365Z,17.00
2018-06-23T10:36:24.542Z,17.40
2018-06-23T10:38:51.730Z,18.20
2018-06-23T10:41:18.917Z,18.90
2018-06-23T10:43:46.141Z,19.10
2018-06-23T10:46:13.358Z,19.70
2018-06-23T10:48:40.561Z,20.00
2018-06-23T10:51:07.761Z,20.10
2018-06-23T10:53:34.949Z,19.80
2018-06-23T10:56:02.145Z,19.80
2018-06-23T10:58:29.315Z,19.80
2018-06-23T11:00:56.516Z,20.50
2018-06-23T11:05:50.929Z,21.10
2018-06-23T11:08:18.101Z,20.80
2018-06-23T11:10:45.331Z,21.40
2018-06-23T11:13:12.636Z,22.00
2018-06-23T11:15:40.085Z,21.70
2018-06-23T11:18:07.288Z,20.90
2018-06-23T11:20:34.501Z,20.70
2018-06-23T11:23:01.684Z,20.30
2018-06-23T11:25:28.878Z,19.80
2018-06-23T11:27:56.049Z,20.70
2018-06-23T11:30:23.245Z,21.40
2018-06-23T11:32:50.428Z,22.80
2018-06-23T11:35:17.616Z,23.40
2018-06-23T11:37:44.802Z,22.20
2018-06-23T11:40:12.068Z,22.10
2018-06-23T11:42:39.265Z,22.50
2018-06-23T11:45:06.507Z,23.60
2018-06-23T11:47:33.693Z,23.30
2018-06-23T11:50:01.172Z,23.30
2018-06-23T11:52:28.507Z,23.50
2018-06-23T11:54:55.581Z,23.10
2018-06-23T11:57:22.780Z,24.00
2018-06-23T11:59:49.966Z,24.80
2018-06-23T12:02:17.161Z,23.90
2018-06-23T12:04:44.348Z,23.40
2018-06-23T12:07:11.523Z,23.40
2018-06-23T12:09:38.723Z,23.60
2018-06-23T12:12:05.965Z,24.20
2018-06-23T12:14:33.162Z,23.90
2018-06-23T12:17:00.376Z,23.90
2018-06-23T12:19:27.565Z,24.20
2018-06-23T12:21:54.720Z,24.30
2018-06-23T12:24:21.921Z,25.50
2018-06-23T12:26:49.137Z,25.70
2018-06-23T12:31:43.509Z,24.80
2018-06-23T12:34:10.689Z,25.00
2018-06-23T12:36:37.913Z,25.70
2018-06-23T12:39:07.474Z,24.60
2018-06-23T12:41:34.720Z,23.40
2018-06-23T12:44:02.072Z,24.00
2018-06-23T12:46:29.272Z,24.60
2018-06-23T12:48:56.463Z,25.00
2018-06-23T12:51:23.657Z,25.60
2018-06-23T12:53:50.854Z,26.10
2018-06-23T12:56:18.062Z,25.90
2018-06-23T13:01:12.458Z,27.90
2018-06-23T13:03:39.641Z,28.00
2018-06-23T13:06:06.846Z,26.50
2018-06-23T13:08:34.038Z,25.70
2018-06-23T13:11:01.238Z,24.10
2018-06-23T13:13:28.429Z,23.40
2018-06-23T13:15:55.658Z,22.50
2018-06-23T13:18:22.864Z,23.20
2018-06-23T13:20:50.042Z,23.70
2018-06-23T13:23:17.237Z,24.00
2018-06-23T13:25:44.421Z,24.50
2018-06-23T13:30:38.820Z,23.50
2018-06-23T13:33:06.039Z,22.10
2018-06-23T13:35:33.340Z,21.40
2018-06-23T13:38:00.539Z,21.70
2018-06-23T13:42:55.018Z,22.50
2018-06-23T13:45:22.204Z,23.50
2018-06-23T13:47:49.410Z,24.30
2018-06-23T13:50:16.602Z,24.70
2018-06-23T13:52:43.790Z,24.50
2018-06-23T13:55:10.998Z,24.40
2018-06-23T13:57:38.193Z,24.60
2018-06-23T14:00:06.580Z,24.80
2018-06-23T14:02:33.785Z,24.70
2018-06-23T14:05:00.982Z,24.70
2018-06-23T14:07:28.156Z,25.10
2018-06-23T14:09:55.346Z,25.70
2018-06-23T14:12:22.562Z,24.70
2018-06-23T14:14:49.780Z,23.30
2018-06-23T14:17:16.952Z,23.50
2018-06-23T14:19:44.138Z,23.60
2018-06-23T14:22:11.323Z,24.80
2018-06-23T14:24:38.589Z,25.30
2018-06-23T14:27:05.801Z,25.40
2018-06-23T14:29:33.041Z,25.90
2018-06-23T14:32:00.496Z,25.60
2018-06-23T14:34:27.466Z,25.00
2018-06-23T14:36:54.661Z,24.70
2018-06-23T14:39:21.841Z,25.00
2018-06-23T14:41:49.025Z,25.20
2018-06-23T14:44:16.370Z,24.80
2018-06-23T14:46:43.580Z,24.80
2018-06-23T14:49:10.757Z,24.30
2018-06-23T14:51:37.970Z,24.80
2018-06-23T14:54:05.323Z,24.30
2018-06-23T14:56:32.505Z,24.20
2018-06-23T14:58:59.705Z,24.50
2018-06-23T15:01:26.881Z,24.70
2018-06-23T15:03:54.053Z,24.10
2018-06-23T15:06:21.229Z,23.70
2018-06-23T15:08:59.938Z,23.30
2018-06-23T15:11:38.624Z,22.80
2018-06-23T15:14:05.815Z,23.20
2018-06-23T15:16:33.052Z,24.00
2018-06-23T15:19:00.237Z,23.90
2018-06-23T15:21:27.440Z,24.10
2018-06-23T15:23:54.631Z,24.60
2018-06-23T15:26:21.820Z,24.80
2018-06-23T15:28:49.005Z,25.40
2018-06-23T15:31:16.195Z,25.10
2018-06-23T15:33:43.425Z,25.30
2018-06-23T15:36:10.836Z,25.40
2018-06-23T15:38:38.001Z,25.40
2018-06-23T15:41:05.707Z,25.40
2018-06-23T15:43:33.045Z,25.30
2018-06-23T15:46:00.279Z,24.80
2018-06-23T15:48:27.459Z,25.00
2018-06-23T15:50:54.657Z,25.60
2018-06-23T15:53:21.832Z,26.00
2018-06-23T15:55:49.104Z,26.00
2018-06-23T15:58:16.310Z,25.10
2018-06-23T16:00:43.520Z,23.40
2018-06-23T16:05:37.898Z,22.60
2018-06-23T16:08:05.118Z,23.00
2018-06-23T16:10:32.318Z,22.90
2018-06-23T16:12:59.499Z,22.60
2018-06-23T16:15:26.743Z,23.10
2018-06-23T16:17:53.900Z,23.50
2018-06-23T16:20:21.074Z,23.50
2018-06-23T16:22:48.285Z,22.30
2018-06-23T16:25:15.936Z,21.10
2018-06-23T16:27:43.177Z,20.50
2018-06-23T16:30:10.364Z,20.70
2018-06-23T16:32:37.614Z,21.80
2018-06-23T16:35:05.126Z,21.90
2018-06-23T16:37:32.200Z,21.30
2018-06-23T16:39:59.399Z,20.60
2018-06-23T16:42:26.585Z,20.40
2018-06-23T16:44:53.782Z,20.10
2018-06-23T16:47:20.969Z,19.90
2018-06-23T16:49:48.147Z,19.60
2018-06-23T16:52:15.334Z,19.30
2018-06-23T16:54:42.513Z,19.10
2018-06-23T16:57:09.714Z,19.00
2018-06-23T16:59:36.897Z,18.90
2018-06-23T17:02:04.110Z,18.80
2018-06-23T17:04:31.306Z,18.50
2018-06-23T17:06:58.506Z,18.50
2018-06-23T17:09:25.856Z,18.30
2018-06-23T17:11:53.084Z,18.20
2018-06-23T17:14:20.265Z,18.20
2018-06-23T17:16:47.501Z,18.10
2018-06-23T17:19:14.686Z,18.10
2018-06-23T17:21:42.797Z,18.00
2018-06-23T17:24:09.981Z,17.90
2018-06-23T17:26:37.163Z,17.80
2018-06-23T17:29:04.485Z,17.80
2018-06-23T17:31:31.670Z,17.80
2018-06-23T17:33:58.850Z,17.70
2018-06-23T17:36:26.050Z,17.60
2018-06-23T17:38:53.226Z,17.50
2018-06-23T17:41:20.420Z,17.50
2018-06-23T17:43:47.620Z,17.50
2018-06-23T17:46:14.826Z,17.50
2018-06-23T17:48:42.005Z,17.50
2018-06-23T17:51:09.183Z,17.50
2018-06-23T17:53:36.364Z,17.50
2018-06-23T17:56:03.825Z,17.40
2018-06-23T17:58:31.024Z,17.30
2018-06-23T18:00:58.258Z,17.30
2018-06-23T18:03:25.444Z,17.40
2018-06-23T18:05:52.629Z,17.40
2018-06-23T18:08:19.849Z,17.40
2018-06-23T18:10:47.086Z,17.40
2018-06-23T18:13:14.273Z,17.40
2018-06-23T18:15:41.480Z,17.20
2018-06-23T18:18:08.628Z,17.00
2018-06-23T18:20:35.819Z,16.90
2018-06-23T18:23:03.030Z,16.80
2018-06-23T18:25:30.231Z,16.70
2018-06-23T18:27:57.434Z,16.70
2018-06-23T18:30:24.629Z,16.60
2018-06-23T18:32:51.822Z,16.40
2018-06-23T18:35:19.003Z,16.30
2018-06-23T18:37:46.216Z,16.10
2018-06-23T18:40:13.396Z,16.00
2018-06-23T18:42:40.586Z,15.70
2018-06-23T18:45:07.781Z,15.50
2018-06-23T18:47:35.156Z,15.40
2018-06-23T18:50:02.362Z,15.20
2018-06-23T18:54:56.925Z,15.00
2018-06-23T18:57:24.108Z,14.90
2018-06-23T18:59:51.293Z,14.80
2018-06-23T19:02:18.512Z,14.80
2018-06-23T19:04:45.718Z,14.80
2018-06-23T19:07:12.897Z,14.80
2018-06-23T19:09:40.085Z,14.70
2018-06-23T19:12:07.273Z,14.60
2018-06-23T19:14:34.456Z,14.50
2018-06-23T19:17:01.667Z,14.50
2018-06-23T19:19:28.880Z,14.40
2018-06-23T19:21:56.065Z,14.40
2018-06-23T19:24:23.269Z,14.40
2018-06-23T19:26:50.445Z,14.40
2018-06-23T19:29:17.632Z,14.30
2018-06-23T19:31:44.828Z,14.30
2018-06-23T19:34:12.017Z,14.30
2018-06-23T19:36:39.243Z,14.20
2018-06-23T19:39:08.337Z,14.10
2018-06-23T19:41:35.534Z,14.00
2018-06-23T19:44:02.827Z,14.00
2018-06-23T19:46:30.021Z,13.90
2018-06-23T19:48:57.205Z,13.80
2018-06-23T19:51:24.389Z,13.70
2018-06-23T19:53:51.641Z,13.70
2018-06-23T19:56:18.771Z,13.60
2018-06-23T19:58:45.976Z,13.50
2018-06-23T20:01:13.149Z,13.50
2018-06-23T20:03:40.332Z,13.40
2018-06-23T20:06:07.728Z,13.40
2018-06-23T20:08:34.930Z,13.30
2018-06-23T20:11:02.138Z,13.30
2018-06-23T20:13:29.328Z,13.30
2018-06-23T20:15:56.796Z,13.30
2018-06-23T20:18:23.998Z,13.20
2018-06-23T20:20:51.215Z,13.20
2018-06-23T20:23:18.425Z,13.20
2018-06-23T20:25:46.457Z,13.20
2018-06-23T20:28:13.793Z,13.20
2018-06-23T20:30:41.046Z,13.20
2018-06-23T20:33:08.348Z,13.20
2018-06-23T20:35:35.534Z,13.20
2018-06-23T20:38:02.753Z,13.20
2018-06-23T20:40:29.946Z,13.20
2018-06-23T20:42:57.133Z,13.20
2018-06-23T20:45:24.326Z,13.10
2018-06-23T20:47:51.497Z,13.00
2018-06-23T20:50:18.685Z,12.90
2018-06-23T20:52:45.869Z,12.90
2018-06-23T20:55:13.072Z,12.80
2018-06-23T20:57:40.289Z,12.70
2018-06-23T21:00:07.517Z,12.60
2018-06-23T21:02:34.735Z,12.50
2018-06-23T21:05:01.938Z,12.50
2018-06-23T21:07:29.226Z,12.40
2018-06-23T21:09:56.349Z,12.40
2018-06-23T21:12:23.538Z,12.30
2018-06-23T21:14:50.725Z,12.40
2018-06-23T21:17:17.926Z,12.40
2018-06-23T21:19:45.193Z,12.30
2018-06-23T21:22:12.402Z,12.30
2018-06-23T21:24:39.605Z,12.20
2018-06-23T21:27:06.862Z,12.20
2018-06-23T21:29:34.045Z,12.20
2018-06-23T21:32:01.250Z,12.10
2018-06-23T21:34:28.458Z,12.10
2018-06-23T21:36:55.641Z,12.10
2018-06-23T21:39:22.853Z,12.00
2018-06-23T21:41:50.037Z,12.00
2018-06-23T21:44:17.230Z,12.00
2018-06-23T21:46:44.456Z,12.10
2018-06-23T21:49:11.624Z,12.10
2018-06-23T21:51:38.814Z,12.20
2018-06-23T21:56:33.305Z,12.30
2018-06-23T21:59:00.484Z,12.40
2018-06-23T22:01:27.798Z,12.40
2018-06-23T22:03:55.178Z,12.40
2018-06-23T22:06:22.368Z,12.40
2018-06-23T22:08:49.554Z,12.40
2018-06-23T22:11:16.796Z,12.30
2018-06-23T22:13:43.977Z,12.20
2018-06-23T22:16:11.174Z,12.20
2018-06-23T22:18:38.380Z,12.20
2018-06-23T22:21:05.745Z,12.20
2018-06-23T22:23:32.932Z,12.20
2018-06-23T22:26:00.179Z,12.10
2018-06-23T22:28:27.388Z,12.10
2018-06-23T22:30:54.568Z,12.10
2018-06-23T22:33:21.757Z,12.10
2018-06-23T22:35:48.957Z,12.10
2018-06-23T22:38:16.181Z,12.10
2018-06-23T22:40:43.481Z,12.10
2018-06-23T22:43:10.666Z,12.10
2018-06-23T22:45:37.878Z,12.10
2018-06-23T22:48:05.093Z,12.10
2018-06-23T22:50:32.284Z,12.10
2018-06-23T22:52:59.486Z,12.10
2018-06-23T22:55:26.676Z,12.20
2018-06-23T22:57:53.915Z,12.20
2018-06-23T23:00:21.098Z,12.20
2018-06-23T23:02:48.302Z,12.20
2018-06-23T23:05:15.497Z,12.20
2018-06-23T23:07:42.712Z,12.20
2018-06-23T23:10:10.531Z,12.20
2018-06-23T23:12:37.725Z,12.20
2018-06-23T23:15:05.348Z,12.20
2018-06-23T23:17:32.719Z,12.20
2018-06-23T23:19:59.920Z,12.20
2018-06-23T23:22:27.124Z,12.20
2018-06-23T23:24:54.310Z,12.10
2018-06-23T23:27:21.777Z,12.10
2018-06-23T23:29:48.961Z,12.00
2018-06-23T23:32:16.166Z,11.90
2018-06-23T23:34:43.344Z,11.80
2018-06-23T23:37:10.521Z,11.70
2018-06-23T23:39:37.729Z,11.60
2018-06-23T23:42:04.913Z,11.50
2018-06-23T23:44:32.121Z,11.40
2018-06-23T23:46:59.313Z,11.30
2018-06-23T23:49:26.496Z,11.20
2018-06-23T23:51:53.689Z,11.00
2018-06-23T23:54:20.892Z,10.90
2018-06-23T23:56:48.105Z,10.70
2018-06-23T23:59:15.313Z,10.60
